createdAt,value
2019-02-10T00:00:33.350Z,98444.58
2019-02-10T00:03:04.363Z,98447.42
2019-02-10T00:05:34.534Z,98441.30
2019-02-10T00:08:04.730Z,98445.30
2019-02-10T00:10:34.969Z,98445.87
2019-02-10T00:13:26.663Z,98447.52
2019-02-10T00:15:57.101Z,98447.26
2019-02-10T00:18:27.264Z,98445.36
2019-02-10T00:20:57.453Z,98443.80
2019-02-10T00:23:28.015Z,98442.25
2019-02-10T00:25:58.193Z,98435.17
2019-02-10T00:28:28.392Z,98445.73
2019-02-10T00:30:58.754Z,98443.59
2019-02-10T00:33:29.153Z,98437.05
2019-02-10T00:35:59.346Z,98434.42
2019-02-10T00:38:29.568Z,98432.34
2019-02-10T00:40:59.781Z,98438.87
2019-02-10T00:43:29.956Z,98438.84
2019-02-10T00:46:00.220Z,98434.45
2019-02-10T00:48:30.424Z,98432.58
2019-02-10T00:51:00.774Z,98435.50
2019-02-10T00:53:30.957Z,98437.11
2019-02-10T00:56:01.089Z,98436.85
2019-02-10T00:58:31.345Z,98441.06
2019-02-10T01:01:01.507Z,98437.42
2019-02-10T01:03:33.007Z,98443.95
2019-02-10T01:06:03.542Z,98442.10
2019-02-10T01:08:33.942Z,98438.17
2019-02-10T01:11:04.101Z,98433.67
2019-02-10T01:13:34.330Z,98437.36
2019-02-10T01:16:04.631Z,98433.98
2019-02-10T01:18:35.701Z,98432.63
2019-02-10T01:21:06.021Z,98430.77
2019-02-10T01:23:38.124Z,98424.16
2019-02-10T01:26:08.514Z,98421.00
2019-02-10T01:28:38.808Z,98419.16
2019-02-10T01:31:09.110Z,98422.40
2019-02-10T01:33:39.415Z,98415.03
2019-02-10T01:36:09.588Z,98406.80
2019-02-10T01:38:39.792Z,98406.08
2019-02-10T01:41:10.038Z,98407.30
2019-02-10T01:43:40.222Z,98402.11
2019-02-10T01:46:10.636Z,98403.95
2019-02-10T01:48:40.788Z,98397.87
2019-02-10T01:51:12.216Z,98392.81
2019-02-10T01:53:42.476Z,98395.80
2019-02-10T01:56:12.644Z,98387.06
2019-02-10T01:58:42.834Z,98395.08
2019-02-10T02:01:13.274Z,98389.27
2019-02-10T02:03:44.126Z,98387.67
2019-02-10T02:06:14.326Z,98378.95
2019-02-10T02:08:45.297Z,98373.64
2019-02-10T02:11:15.450Z,98365.55
2019-02-10T02:13:45.673Z,98365.55
2019-02-10T02:16:15.883Z,98368.24
2019-02-10T02:18:46.042Z,98362.64
2019-02-10T02:21:16.202Z,98365.02
2019-02-10T02:23:46.561Z,98360.23
2019-02-10T02:26:16.778Z,98348.86
2019-02-10T02:28:46.987Z,98347.63
2019-02-10T02:31:17.178Z,98351.56
2019-02-10T02:33:48.397Z,98350.84
2019-02-10T02:36:18.641Z,98348.22
2019-02-10T02:38:48.969Z,98343.14
2019-02-10T02:41:19.921Z,98333.13
2019-02-10T02:43:50.096Z,98331.80
2019-02-10T02:46:20.369Z,98336.83
2019-02-10T02:48:50.532Z,98333.14
2019-02-10T02:51:20.711Z,98328.61
2019-02-10T02:53:50.894Z,98320.43
2019-02-10T02:56:21.351Z,98322.02
2019-02-10T02:58:51.543Z,98320.40
2019-02-10T03:01:21.726Z,98322.80
2019-02-10T03:03:52.372Z,98309.89
2019-02-10T03:06:23.660Z,98315.44
2019-02-10T03:08:53.829Z,98307.90
2019-02-10T03:11:24.342Z,98292.41
2019-02-10T03:13:54.515Z,98287.88
2019-02-10T03:16:24.762Z,98288.68
2019-02-10T03:18:54.962Z,98283.89
2019-02-10T03:21:25.109Z,98276.72
2019-02-10T03:23:55.322Z,98268.56
2019-02-10T03:26:25.588Z,98262.77
2019-02-10T03:28:55.772Z,98260.86
2019-02-10T03:31:26.125Z,98262.45
2019-02-10T03:33:56.301Z,98263.09
2019-02-10T03:36:27.601Z,98256.20
2019-02-10T03:38:57.824Z,98263.13
2019-02-10T03:41:28.049Z,98259.17
2019-02-10T03:43:58.236Z,98253.08
2019-02-10T03:46:28.405Z,98255.77
2019-02-10T03:48:58.670Z,98252.05
2019-02-10T03:51:28.861Z,98254.41
2019-02-10T03:53:59.057Z,98253.43
2019-02-10T03:56:29.259Z,98250.02
2019-02-10T03:58:59.527Z,98238.41
2019-02-10T04:01:29.740Z,98240.06
2019-02-10T04:04:01.148Z,98237.41
2019-02-10T04:06:31.469Z,98229.30
2019-02-10T04:09:01.698Z,98223.25
2019-02-10T04:11:33.314Z,98222.70
2019-02-10T04:14:03.459Z,98222.76
2019-02-10T04:16:33.631Z,98216.42
2019-02-10T04:19:03.858Z,98216.42
2019-02-10T04:21:34.088Z,98218.03
2019-02-10T04:24:04.286Z,98210.84
2019-02-10T04:26:34.496Z,98210.60
2019-02-10T04:29:04.637Z,98202.23
2019-02-10T04:31:34.854Z,98200.62
2019-02-10T04:34:05.053Z,98209.30
2019-02-10T04:36:35.352Z,98204.86
2019-02-10T04:39:06.277Z,98191.12
2019-02-10T04:41:36.512Z,98191.11
2019-02-10T04:44:06.765Z,98189.31
2019-02-10T04:46:37.353Z,98186.95
2019-02-10T04:49:07.535Z,98181.17
2019-02-10T04:51:37.674Z,98173.22
2019-02-10T04:54:07.869Z,98169.81
2019-02-10T04:56:38.108Z,98161.35
2019-02-10T04:59:08.286Z,98157.86
2019-02-10T05:01:38.510Z,98158.05
2019-02-10T05:04:08.944Z,98149.33
2019-02-10T05:06:39.348Z,98155.11
2019-02-10T05:09:09.533Z,98153.30
2019-02-10T05:11:39.661Z,98150.95
2019-02-10T05:14:09.837Z,98146.02
2019-02-10T05:16:40.432Z,98148.08
2019-02-10T05:19:10.610Z,98142.04
2019-02-10T05:21:40.863Z,98140.95
2019-02-10T05:24:11.001Z,98131.22
2019-02-10T05:26:41.203Z,98130.98
2019-02-10T05:29:11.481Z,98128.34
2019-02-10T05:31:41.670Z,98117.27
2019-02-10T05:34:12.193Z,98109.67
2019-02-10T05:36:42.825Z,98106.25
2019-02-10T05:39:13.206Z,98103.08
2019-02-10T05:41:43.393Z,98093.75
2019-02-10T05:44:13.909Z,98087.50
2019-02-10T05:46:44.105Z,98074.00
2019-02-10T05:49:14.351Z,98064.05
2019-02-10T05:51:44.573Z,98067.53
2019-02-10T05:54:14.747Z,98065.27
2019-02-10T05:56:45.101Z,98054.41
2019-02-10T05:59:15.344Z,98054.17
2019-02-10T06:02:26.995Z,98061.05
2019-02-10T06:05:00.030Z,98057.59
2019-02-10T06:07:30.276Z,98038.66
2019-02-10T06:10:00.799Z,98037.84
2019-02-10T06:12:31.170Z,98032.89
2019-02-10T06:15:01.359Z,98030.83
2019-02-10T06:17:31.599Z,98015.56
2019-02-10T06:20:01.783Z,98012.63
2019-02-10T06:22:33.086Z,98008.61
2019-02-10T06:25:03.323Z,97998.74
2019-02-10T06:27:33.540Z,98000.56
2019-02-10T06:30:04.213Z,97992.69
2019-02-10T06:32:34.740Z,97985.14
2019-02-10T06:35:05.308Z,97981.37
2019-02-10T06:37:35.597Z,97975.78
2019-02-10T06:40:07.151Z,97991.55
2019-02-10T06:42:37.384Z,97979.22
2019-02-10T06:45:09.767Z,97982.77
2019-02-10T06:47:39.942Z,97978.02
2019-02-10T06:50:11.747Z,97973.30
2019-02-10T06:52:42.298Z,97959.00
2019-02-10T06:55:13.931Z,97950.48
2019-02-10T06:57:44.104Z,97940.94
2019-02-10T07:00:36.486Z,97930.42
2019-02-10T07:03:49.246Z,97908.23
2019-02-10T07:06:19.777Z,97882.72
2019-02-10T07:08:50.067Z,97861.94
2019-02-10T07:11:20.593Z,97905.36
2019-02-10T07:14:01.350Z,97924.92
2019-02-10T07:16:40.069Z,97929.41
2019-02-10T07:19:45.948Z,97921.84
2019-02-10T07:23:01.998Z,97924.62
2019-02-10T07:26:01.495Z,97911.07
2019-02-10T07:29:27.772Z,97912.95
2019-02-10T07:32:05.896Z,97919.48
2019-02-10T07:35:09.487Z,97894.55
2019-02-10T07:37:53.862Z,97883.39
2019-02-10T07:40:52.579Z,97872.23
2019-02-10T07:44:11.392Z,97864.03
2019-02-10T07:47:15.096Z,97883.88
2019-02-10T07:50:05.614Z,97880.58
2019-02-10T07:52:54.938Z,97885.48
2019-02-10T07:56:18.560Z,97875.56
2019-02-10T07:59:10.900Z,97883.06
2019-02-10T08:02:07.656Z,97882.05
2019-02-10T08:05:10.613Z,97854.97
2019-02-10T08:08:15.520Z,97861.34
2019-02-10T08:11:20.762Z,97857.01
2019-02-10T08:14:06.924Z,97842.34
2019-02-10T08:16:59.320Z,97821.05
2019-02-10T08:19:52.091Z,97832.67
2019-02-10T08:23:00.352Z,97809.61
2019-02-10T08:26:06.082Z,97821.05
2019-02-10T08:29:16.806Z,97797.02
2019-02-10T08:32:39.483Z,97806.78
2019-02-10T08:35:53.540Z,97796.30
2019-02-10T08:38:54.879Z,97775.71
2019-02-10T08:41:41.779Z,97762.09
2019-02-10T08:45:13.949Z,97754.43
2019-02-10T08:48:08.341Z,97748.05
2019-02-10T08:51:00.871Z,97739.62
2019-02-10T08:53:34.938Z,97741.05
2019-02-10T08:56:05.211Z,97719.70
2019-02-10T08:58:35.407Z,97711.00
2019-02-10T09:01:05.557Z,97716.06
2019-02-10T09:03:35.766Z,97705.34
2019-02-10T09:06:06.028Z,97708.39
2019-02-10T09:08:36.602Z,97711.67
2019-02-10T09:11:06.877Z,97697.13
2019-02-10T09:13:37.166Z,97706.86
2019-02-10T09:16:07.425Z,97695.02
2019-02-10T09:18:37.643Z,97686.48
2019-02-10T09:21:07.819Z,97670.70
2019-02-10T09:23:38.024Z,97666.69
2019-02-10T09:26:08.278Z,97659.47
2019-02-10T09:28:38.424Z,97645.41
2019-02-10T09:31:08.907Z,97654.01
2019-02-10T09:33:39.176Z,97630.17
2019-02-10T09:36:09.329Z,97623.31
2019-02-10T09:38:39.624Z,97621.99
2019-02-10T09:41:09.855Z,97602.96
2019-02-10T09:43:40.156Z,97607.09
2019-02-10T09:46:10.362Z,97600.84
2019-02-10T09:48:40.607Z,97611.67
2019-02-10T09:51:10.980Z,97609.13
2019-02-10T09:53:41.152Z,97602.90
2019-02-10T09:56:11.439Z,97595.19
2019-02-10T09:58:41.604Z,97593.92
2019-02-10T10:01:11.852Z,97587.52
2019-02-10T10:03:42.032Z,97581.88
2019-02-10T10:06:12.216Z,97568.41
2019-02-10T10:08:42.716Z,97561.99
2019-02-10T10:11:13.015Z,97553.63
2019-02-10T10:13:43.426Z,97554.77
2019-02-10T10:16:13.676Z,97541.48
2019-02-10T10:18:44.003Z,97538.44
2019-02-10T10:21:14.218Z,97535.92
2019-02-10T10:23:44.739Z,97516.85
2019-02-10T10:26:15.127Z,97522.92
2019-02-10T10:28:45.345Z,97508.17
2019-02-10T10:31:15.537Z,97494.38
2019-02-10T10:33:46.764Z,97490.00
2019-02-10T10:36:16.963Z,97489.59
2019-02-10T10:38:47.179Z,97483.52
2019-02-10T10:41:17.479Z,97479.91
2019-02-10T10:43:48.969Z,97468.55
2019-02-10T10:46:19.301Z,97465.44
2019-02-10T10:48:49.453Z,97455.37
2019-02-10T10:51:20.697Z,97457.62
2019-02-10T10:53:50.839Z,97451.52
2019-02-10T10:56:22.009Z,97444.87
2019-02-10T10:58:52.804Z,97442.88
2019-02-10T11:01:25.383Z,97436.33
2019-02-10T11:03:55.001Z,97425.97
2019-02-10T11:06:25.302Z,97420.53
2019-02-10T11:08:55.853Z,97397.12
2019-02-10T11:11:26.057Z,97389.72
2019-02-10T11:13:56.298Z,97388.33
2019-02-10T11:16:26.487Z,97383.81
2019-02-10T11:18:56.784Z,97369.63
2019-02-10T11:21:27.083Z,97361.55
2019-02-10T11:23:57.300Z,97346.22
2019-02-10T11:26:27.470Z,97351.66
2019-02-10T11:28:57.983Z,97336.64
2019-02-10T11:31:28.162Z,97334.86
2019-02-10T11:33:58.473Z,97313.17
2019-02-10T11:36:29.061Z,97323.43
2019-02-10T11:38:59.231Z,97330.26
2019-02-10T11:41:29.430Z,97316.58
2019-02-10T11:43:59.750Z,97307.42
2019-02-10T11:46:29.982Z,97311.39
2019-02-10T11:49:00.189Z,97320.00
2019-02-10T11:51:30.378Z,97306.09
2019-02-10T11:54:05.630Z,97304.06
2019-02-10T11:56:35.865Z,97287.02
2019-02-10T11:59:06.241Z,97275.38
2019-02-10T12:01:36.440Z,97264.80
2019-02-10T12:04:06.810Z,97265.03
2019-02-10T12:06:36.972Z,97248.70
2019-02-10T12:09:07.660Z,97242.95
2019-02-10T12:11:37.837Z,97233.08
2019-02-10T12:14:08.007Z,97233.76
2019-02-10T12:16:38.237Z,97228.25
2019-02-10T12:19:08.429Z,97233.84
2019-02-10T12:21:38.663Z,97201.66
2019-02-10T12:24:09.826Z,97198.16
2019-02-10T12:26:40.145Z,97181.18
2019-02-10T12:29:10.343Z,97175.41
2019-02-10T12:31:40.546Z,97160.57
2019-02-10T12:34:10.809Z,97159.70
2019-02-10T12:36:41.327Z,97153.96
2019-02-10T12:39:11.516Z,97141.03
2019-02-10T12:41:42.001Z,97135.87
2019-02-10T12:44:12.402Z,97130.83
2019-02-10T12:46:42.642Z,97119.14
2019-02-10T12:49:12.859Z,97114.30
2019-02-10T12:51:43.073Z,97101.65
2019-02-10T12:54:13.270Z,97094.83
2019-02-10T12:56:44.267Z,97075.45
2019-02-10T12:59:14.490Z,97088.14
2019-02-10T13:01:44.808Z,97080.70
2019-02-10T13:04:14.985Z,97078.34
2019-02-10T13:06:46.677Z,97066.26
2019-02-10T13:09:17.238Z,97056.94
2019-02-10T13:11:47.420Z,97051.43
2019-02-10T13:14:17.653Z,97051.89
2019-02-10T13:16:47.879Z,97038.33
2019-02-10T13:19:18.101Z,97051.02
2019-02-10T13:21:48.269Z,97033.04
2019-02-10T13:24:18.459Z,97040.34
2019-02-10T13:26:48.962Z,97007.19
2019-02-10T13:29:19.218Z,97015.75
2019-02-10T13:31:49.975Z,96994.83
2019-02-10T13:34:20.442Z,96995.97
2019-02-10T13:36:50.704Z,96987.25
2019-02-10T13:39:20.929Z,96983.22
2019-02-10T13:41:49.412Z,96971.77
2019-02-10T13:44:19.697Z,96975.19
2019-02-10T13:46:50.898Z,96974.25
2019-02-10T13:49:21.194Z,96965.32
2019-02-10T13:51:51.350Z,96959.69
2019-02-10T13:54:21.693Z,96953.74
2019-02-10T13:56:51.882Z,96963.45
2019-02-10T13:59:22.180Z,96964.77
2019-02-10T14:01:52.360Z,96950.23
2019-02-10T14:04:22.539Z,96943.48
2019-02-10T14:06:52.703Z,96941.42
2019-02-10T14:09:23.251Z,96939.05
2019-02-10T14:11:53.560Z,96920.70
2019-02-10T14:14:23.815Z,96925.66
2019-02-10T14:16:54.028Z,96921.59
2019-02-10T14:19:24.264Z,96921.69
2019-02-10T14:21:56.108Z,96913.00
2019-02-10T14:24:28.128Z,96910.75
2019-02-10T14:26:58.400Z,96895.53
2019-02-10T14:29:28.841Z,96893.09
2019-02-10T14:31:59.088Z,96899.66
2019-02-10T14:34:29.315Z,96900.81
2019-02-10T14:36:59.540Z,96897.47
2019-02-10T14:39:29.698Z,96898.02
2019-02-10T14:41:59.849Z,96888.77
2019-02-10T14:44:30.349Z,96888.20
2019-02-10T14:47:00.595Z,96874.56
2019-02-10T14:49:30.760Z,96863.19
2019-02-10T14:52:00.994Z,96870.16
2019-02-10T14:54:31.148Z,96867.20
2019-02-10T14:57:01.721Z,96860.94
2019-02-10T14:59:32.319Z,96858.30
2019-02-10T15:02:02.528Z,96853.20
2019-02-10T15:04:32.686Z,96848.69
2019-02-10T15:07:02.891Z,96842.84
2019-02-10T15:09:33.347Z,96839.97
2019-02-10T15:12:03.553Z,96833.78
2019-02-10T15:14:33.917Z,96838.19
2019-02-10T15:17:05.062Z,96833.88
2019-02-10T15:19:35.295Z,96832.06
2019-02-10T15:22:05.469Z,96829.33
2019-02-10T15:24:35.718Z,96829.77
2019-02-10T15:27:05.952Z,96822.06
2019-02-10T15:29:36.151Z,96830.34
2019-02-10T15:32:06.335Z,96820.41
2019-02-10T15:34:38.418Z,96826.94
2019-02-10T15:37:08.634Z,96825.31
2019-02-10T15:39:38.837Z,96813.97
2019-02-10T15:42:09.643Z,96814.83
2019-02-10T15:44:40.169Z,96818.28
2019-02-10T15:47:10.389Z,96813.64
2019-02-10T15:49:40.582Z,96817.81
2019-02-10T15:52:10.938Z,96810.00
2019-02-10T15:54:41.136Z,96803.17
2019-02-10T15:57:11.367Z,96778.69
2019-02-10T15:59:41.944Z,96772.11
2019-02-10T16:02:12.099Z,96795.72
2019-02-10T16:04:42.270Z,96775.84
2019-02-10T16:07:12.682Z,96771.98
2019-02-10T16:09:43.194Z,96762.41
2019-02-10T16:12:13.363Z,96773.53
2019-02-10T16:14:43.570Z,96781.61
2019-02-10T16:17:13.756Z,96774.98
2019-02-10T16:19:44.023Z,96772.98
2019-02-10T16:22:14.254Z,96765.91
2019-02-10T16:24:44.456Z,96759.62
2019-02-10T16:27:14.855Z,96756.80
2019-02-10T16:29:45.021Z,96759.49
2019-02-10T16:32:15.199Z,96749.86
2019-02-10T16:34:45.467Z,96761.44
2019-02-10T16:37:15.637Z,96742.67
2019-02-10T16:39:45.862Z,96738.51
2019-02-10T16:42:16.020Z,96742.81
2019-02-10T16:44:46.362Z,96721.63
2019-02-10T16:47:16.694Z,96735.50
2019-02-10T16:49:46.887Z,96747.86
2019-02-10T16:52:17.107Z,96754.73
2019-02-10T16:54:47.336Z,96742.14
2019-02-10T16:57:17.587Z,96745.07
2019-02-10T16:59:47.888Z,96740.46
2019-02-10T17:02:18.032Z,96725.69
2019-02-10T17:04:48.240Z,96724.52
2019-02-10T17:07:18.738Z,96725.92
2019-02-10T17:09:49.433Z,96732.01
2019-02-10T17:12:19.644Z,96728.03
2019-02-10T17:14:49.923Z,96728.38
2019-02-10T17:17:20.209Z,96724.75
2019-02-10T17:19:50.392Z,96725.30
2019-02-10T17:22:20.633Z,96731.92
2019-02-10T17:24:51.007Z,96720.88
2019-02-10T17:27:21.222Z,96726.84
2019-02-10T17:29:51.411Z,96718.96
2019-02-10T17:32:21.652Z,96732.82
2019-02-10T17:34:51.810Z,96740.66
2019-02-10T17:37:22.901Z,96730.23
2019-02-10T17:39:53.132Z,96739.57
2019-02-10T17:42:23.302Z,96743.57
2019-02-10T17:44:53.795Z,96738.06
2019-02-10T17:47:23.947Z,96727.45
2019-02-10T17:49:54.136Z,96731.89
2019-02-10T17:52:31.648Z,96741.27
2019-02-10T17:54:56.278Z,96736.86
2019-02-10T17:57:26.462Z,96750.67
2019-02-10T17:59:56.840Z,96738.53
2019-02-10T18:02:27.008Z,96735.65
2019-02-10T18:04:57.186Z,96734.10
2019-02-10T18:07:27.406Z,96731.43
2019-02-10T18:09:57.880Z,96742.70
2019-02-10T18:12:28.065Z,96734.98
2019-02-10T18:15:33.244Z,96738.52
2019-02-10T18:18:12.191Z,96739.37
2019-02-10T18:20:58.393Z,96734.50
2019-02-10T18:23:44.750Z,96743.45
2019-02-10T18:26:32.708Z,96736.97
2019-02-10T18:29:11.879Z,96737.63
2019-02-10T18:31:49.318Z,96745.16
2019-02-10T18:34:38.616Z,96750.89
2019-02-10T18:37:18.572Z,96746.94
2019-02-10T18:40:06.478Z,96740.53
2019-02-10T18:42:56.194Z,96739.55
2019-02-10T18:45:35.641Z,96734.76
2019-02-10T18:48:24.787Z,96735.77
2019-02-10T18:51:05.029Z,96734.98
2019-02-10T18:53:52.701Z,96733.66
2019-02-10T18:56:40.566Z,96726.05
2019-02-10T18:59:18.585Z,96733.02
2019-02-10T19:02:12.408Z,96731.23
2019-02-10T19:04:53.988Z,96732.66
2019-02-10T19:07:49.470Z,96740.50
2019-02-10T19:10:37.591Z,96730.45
2019-02-10T19:13:22.931Z,96738.63
2019-02-10T19:16:14.262Z,96735.41
2019-02-10T19:19:06.173Z,96734.30
2019-02-10T19:21:53.904Z,96746.98
2019-02-10T19:24:31.386Z,96732.09
2019-02-10T19:27:08.026Z,96735.08
2019-02-10T19:29:55.905Z,96729.47
2019-02-10T19:32:46.575Z,96735.20
2019-02-10T19:35:34.830Z,96737.52
2019-02-10T19:38:17.322Z,96747.20
2019-02-10T19:41:06.618Z,96752.38
2019-02-10T19:43:54.314Z,96744.11
2019-02-10T19:46:42.190Z,96750.75
2019-02-10T19:49:46.563Z,96732.09
2019-02-10T19:52:50.942Z,96744.68
2019-02-10T19:55:29.345Z,96733.66
2019-02-10T19:58:17.196Z,96732.56
2019-02-10T20:00:59.150Z,96731.66
2019-02-10T20:03:52.449Z,96738.41
2019-02-10T20:06:46.593Z,96726.06
2019-02-10T20:09:38.527Z,96725.52
2019-02-10T20:12:36.931Z,96729.37
2019-02-10T20:15:28.586Z,96740.63
2019-02-10T20:18:07.546Z,96741.06
2019-02-10T20:21:08.893Z,96765.71
2019-02-10T20:23:46.413Z,96760.38
2019-02-10T20:26:28.079Z,96759.84
2019-02-10T20:29:28.985Z,96769.66
2019-02-10T20:32:18.616Z,96767.67
2019-02-10T20:34:58.774Z,96768.20
2019-02-10T20:37:53.855Z,96774.06
2019-02-10T20:40:41.373Z,96777.82
2019-02-10T20:43:28.279Z,96791.75
2019-02-10T20:46:17.267Z,96791.84
2019-02-10T20:49:15.597Z,96783.02
2019-02-10T20:52:06.059Z,96788.75
2019-02-10T20:54:54.155Z,96799.80
2019-02-10T20:57:47.321Z,96793.95
2019-02-10T21:00:42.516Z,96787.75
2019-02-10T21:03:30.215Z,96795.05
2019-02-10T21:06:24.779Z,96798.80
2019-02-10T21:09:13.992Z,96819.80
2019-02-10T21:11:52.651Z,96808.75
2019-02-10T21:14:41.997Z,96804.88
2019-02-10T21:17:35.175Z,96806.22
2019-02-10T21:20:15.427Z,96824.63
2019-02-10T21:22:58.689Z,96832.38
2019-02-10T21:25:38.709Z,96825.41
2019-02-10T21:28:14.343Z,96836.11
2019-02-10T21:31:06.396Z,96839.88
2019-02-10T21:33:49.401Z,96846.61
2019-02-10T21:36:31.250Z,96843.63
2019-02-10T21:39:32.301Z,96849.37
2019-02-10T21:42:10.622Z,96854.42
2019-02-10T21:44:58.589Z,96866.19
2019-02-10T21:47:36.487Z,96867.47
2019-02-10T21:50:07.137Z,96834.95
2019-02-10T21:52:37.385Z,96837.83
2019-02-10T21:55:09.313Z,96844.66
2019-02-10T21:57:39.502Z,96836.92
2019-02-10T22:00:11.600Z,96832.03
2019-02-10T22:02:41.842Z,96826.77
2019-02-10T22:05:12.049Z,96826.29
2019-02-10T22:07:42.525Z,96848.05
2019-02-10T22:10:12.971Z,96863.19
2019-02-10T22:12:43.189Z,96871.97
2019-02-10T22:15:13.662Z,96876.52
2019-02-10T22:17:44.800Z,96878.77
2019-02-10T22:20:14.988Z,96887.36
2019-02-10T22:22:45.203Z,96890.85
2019-02-10T22:25:15.488Z,96882.93
2019-02-10T22:27:45.683Z,96871.64
2019-02-10T22:30:16.176Z,96861.41
2019-02-10T22:32:46.422Z,96860.83
2019-02-10T22:35:16.576Z,96855.41
2019-02-10T22:37:46.768Z,96862.58
2019-02-10T22:40:16.913Z,96868.76
2019-02-10T22:42:47.352Z,96857.08
2019-02-10T22:45:17.788Z,96861.41
2019-02-10T22:47:47.983Z,96851.30
2019-02-10T22:50:18.257Z,96859.87
2019-02-10T22:52:48.432Z,96865.77
2019-02-10T22:55:18.708Z,96860.53
2019-02-10T22:57:48.901Z,96870.88
2019-02-10T23:00:52.144Z,96883.01
2019-02-10T23:03:22.329Z,96868.30
2019-02-10T23:05:52.838Z,96870.42
2019-02-10T23:08:23.064Z,96877.00
2019-02-10T23:10:53.236Z,96868.37
2019-02-10T23:13:23.418Z,96874.72
2019-02-10T23:15:53.910Z,96879.86
2019-02-10T23:18:24.153Z,96882.89
2019-02-10T23:20:54.390Z,96881.17
2019-02-10T23:23:24.602Z,96887.99
2019-02-10T23:25:56.360Z,96891.23
2019-02-10T23:28:26.586Z,96887.21
2019-02-10T23:30:56.807Z,96896.30
2019-02-10T23:33:27.986Z,96890.30
2019-02-10T23:35:58.141Z,96892.55
2019-02-10T23:38:28.305Z,96898.47
2019-02-10T23:40:58.669Z,96902.39
2019-02-10T23:43:28.938Z,96897.86
2019-02-10T23:45:59.128Z,96900.16
2019-02-10T23:48:29.298Z,96901.89
2019-02-10T23:50:59.719Z,96908.13
2019-02-10T23:53:29.948Z,96897.06
2019-02-10T23:56:00.136Z,96894.14
2019-02-10T23:58:30.335Z,96890.59
